createdAt,value
2023-02-12T00:02:05.595Z,89.43
2023-02-12T00:04:32.667Z,92.63
2023-02-12T00:06:59.725Z,92.88
2023-02-12T00:09:26.934Z,106.50
2023-02-12T00:11:53.919Z,85.13
2023-02-12T00:14:20.891Z,96.10
2023-02-12T00:16:48.037Z,100.20
2023-02-12T00:19:15.066Z,106.85
2023-02-12T00:21:42.117Z,117.18
2023-02-12T00:24:09.118Z,108.85
2023-02-12T00:26:36.796Z,113.25
2023-02-12T00:29:03.860Z,105.32
2023-02-12T00:31:32.582Z,109.13
2023-02-12T00:34:00.463Z,105.10
2023-02-12T00:36:30.520Z,119.78
2023-02-12T00:38:58.466Z,104.60
2023-02-12T00:41:26.786Z,118.65
2023-02-12T00:43:53.905Z,100.95
2023-02-12T00:46:21.322Z,107.32
2023-02-12T00:48:48.519Z,102.88
2023-02-12T00:51:15.937Z,103.10
2023-02-12T00:53:43.248Z,110.93
2023-02-12T00:56:10.282Z,108.88
2023-02-12T00:58:37.395Z,127.93
2023-02-12T01:01:04.709Z,105.22
2023-02-12T01:03:31.899Z,109.15
2023-02-12T01:05:59.099Z,98.47
2023-02-12T01:08:26.367Z,97.38
2023-02-12T01:11:02.791Z,92.55
2023-02-12T01:13:33.712Z,97.18
2023-02-12T01:16:16.576Z,102.38
2023-02-12T01:18:44.087Z,95.47
2023-02-12T01:21:20.539Z,97.28
2023-02-12T01:23:48.135Z,80.68
2023-02-12T01:26:17.304Z,91.50
2023-02-12T01:28:48.784Z,92.22
2023-02-12T01:31:18.866Z,89.78
2023-02-12T01:33:49.600Z,92.32
2023-02-12T01:36:16.744Z,89.45
2023-02-12T01:38:44.107Z,104.70
2023-02-12T01:41:32.239Z,107.68
2023-02-12T01:44:21.382Z,97.68
2023-02-12T01:46:51.097Z,93.88
2023-02-12T01:49:24.693Z,91.85
2023-02-12T01:52:02.863Z,93.35
2023-02-12T01:54:32.373Z,88.63
2023-02-12T01:57:00.825Z,85.50
2023-02-12T01:59:28.798Z,76.18
2023-02-12T02:01:56.394Z,91.07
2023-02-12T02:04:29.335Z,94.72
2023-02-12T02:07:04.954Z,86.25
2023-02-12T02:09:34.943Z,88.68
2023-02-12T02:12:20.553Z,100.72
2023-02-12T02:14:50.029Z,98.68
2023-02-12T02:17:20.149Z,130.68
2023-02-12T02:20:14.604Z,96.30
2023-02-12T02:22:47.568Z,96.22
2023-02-12T02:25:17.562Z,106.90
2023-02-12T02:28:27.566Z,128.40
2023-02-12T02:30:57.413Z,97.47
2023-02-12T02:33:58.607Z,88.30
2023-02-12T02:37:00.893Z,92.65
2023-02-12T02:39:39.974Z,79.13
2023-02-12T02:42:10.034Z,77.47
2023-02-12T02:44:48.953Z,74.72
2023-02-12T02:47:22.329Z,81.93
2023-02-12T02:49:59.520Z,88.23
2023-02-12T02:52:43.389Z,81.88
2023-02-12T02:55:13.204Z,71.28
2023-02-12T02:57:56.423Z,80.20
2023-02-12T03:00:37.740Z,74.65
2023-02-12T03:03:23.343Z,78.60
2023-02-12T03:05:55.408Z,98.65
2023-02-12T03:08:34.709Z,96.70
2023-02-12T03:11:23.089Z,112.72
2023-02-12T03:13:58.049Z,95.88
2023-02-12T03:16:32.966Z,107.68
2023-02-12T03:19:15.691Z,104.05
2023-02-12T03:21:54.764Z,106.68
2023-02-12T03:24:29.009Z,111.35
2023-02-12T03:29:41.663Z,108.60
2023-02-12T03:32:33.941Z,97.75
2023-02-12T03:35:14.491Z,111.57
2023-02-12T03:37:56.257Z,97.97
2023-02-12T03:40:40.006Z,106.00
2023-02-12T03:43:24.701Z,117.43
2023-02-12T03:46:02.528Z,113.15
2023-02-12T03:48:41.386Z,105.68
2023-02-12T03:51:19.221Z,113.35
2023-02-12T03:53:47.394Z,114.57
2023-02-12T03:56:44.393Z,114.07
2023-02-12T03:59:12.130Z,91.05
2023-02-12T04:01:39.414Z,95.82
2023-02-12T04:04:09.179Z,103.13
2023-02-12T04:06:36.538Z,111.80
2023-02-12T04:09:08.839Z,109.32
2023-02-12T04:11:47.898Z,89.20
2023-02-12T04:14:31.746Z,106.38
2023-02-12T04:17:09.392Z,96.13
2023-02-12T04:19:42.240Z,111.18
2023-02-12T04:22:20.521Z,112.72
2023-02-12T04:25:30.664Z,96.80
2023-02-12T04:28:19.530Z,99.15
2023-02-12T04:31:11.875Z,101.15
2023-02-12T04:34:10.092Z,96.85
2023-02-12T04:37:05.809Z,96.22
2023-02-12T04:39:37.179Z,83.78
2023-02-12T04:42:04.941Z,93.35
2023-02-12T04:44:34.656Z,103.68
2023-02-12T04:47:02.834Z,89.97
2023-02-12T04:49:29.966Z,86.82
2023-02-12T04:51:57.088Z,91.82
2023-02-12T04:54:24.879Z,102.35
2023-02-12T04:56:52.387Z,95.28
2023-02-12T04:59:19.446Z,100.53
2023-02-12T05:01:47.224Z,103.43
2023-02-12T05:04:16.420Z,91.68
2023-02-12T05:06:45.151Z,95.25
2023-02-12T05:09:17.273Z,82.78
2023-02-12T05:11:44.618Z,90.55
2023-02-12T05:14:11.764Z,88.82
2023-02-12T05:16:38.887Z,93.10
2023-02-12T05:19:05.949Z,108.32
2023-02-12T05:21:33.018Z,87.00
2023-02-12T05:24:02.702Z,90.35
2023-02-12T05:26:30.860Z,85.70
2023-02-12T05:28:57.996Z,139.88
2023-02-12T05:31:25.331Z,79.03
2023-02-12T05:33:52.538Z,94.68
2023-02-12T05:36:22.562Z,118.82
2023-02-12T05:38:50.483Z,84.97
2023-02-12T05:41:20.953Z,80.93
2023-02-12T05:43:49.826Z,146.30
2023-02-12T05:46:21.036Z,95.32
2023-02-12T05:48:48.696Z,102.93
2023-02-12T05:51:23.106Z,111.03
2023-02-12T05:53:57.230Z,95.78
2023-02-12T05:58:55.229Z,97.95
2023-02-12T06:01:28.517Z,89.30
2023-02-12T06:03:55.852Z,97.10
2023-02-12T06:06:24.941Z,87.47
2023-02-12T06:08:52.012Z,107.10
2023-02-12T06:11:20.620Z,101.88
2023-02-12T06:13:48.401Z,249.52
2023-02-12T06:16:21.346Z,469.40
2023-02-12T06:18:49.390Z,236.48
2023-02-12T06:21:17.721Z,440.67
2023-02-12T06:23:45.045Z,336.92
2023-02-12T06:26:12.264Z,625.17
2023-02-12T06:28:39.582Z,567.85
2023-02-12T06:31:19.609Z,205.38
2023-02-12T06:33:46.911Z,167.82
2023-02-12T06:36:13.941Z,148.15
2023-02-12T06:38:42.054Z,308.30
2023-02-12T06:41:09.313Z,440.30
2023-02-12T06:43:36.934Z,606.42
2023-02-12T06:46:05.441Z,670.55
2023-02-12T06:48:33.307Z,592.40
2023-02-12T06:51:08.763Z,550.22
2023-02-12T06:53:36.568Z,229.45
2023-02-12T06:56:06.211Z,239.77
2023-02-12T06:58:33.522Z,418.83
2023-02-12T07:01:18.078Z,564.97
2023-02-12T07:06:15.126Z,298.00
2023-02-12T07:08:42.276Z,334.10
2023-02-12T07:11:09.567Z,301.88
2023-02-12T07:13:36.704Z,508.98
2023-02-12T07:16:08.506Z,257.38
2023-02-12T07:18:36.488Z,449.88
2023-02-12T07:21:04.605Z,453.83
2023-02-12T07:23:32.412Z,347.13
2023-02-12T07:26:01.576Z,353.58
2023-02-12T07:28:28.768Z,303.48
2023-02-12T07:30:55.882Z,372.13
2023-02-12T07:33:23.960Z,336.52
2023-02-12T07:35:51.056Z,357.23
2023-02-12T07:38:19.271Z,303.55
2023-02-12T07:40:46.351Z,232.77
2023-02-12T07:43:13.429Z,219.05
2023-02-12T07:45:40.455Z,167.90
2023-02-12T07:48:07.556Z,189.98
2023-02-12T07:50:34.747Z,142.80
2023-02-12T07:53:01.912Z,134.13
2023-02-12T07:55:29.022Z,157.15
2023-02-12T07:57:56.060Z,133.85
2023-02-12T08:00:23.294Z,159.02
2023-02-12T08:02:54.372Z,176.00
2023-02-12T08:05:21.452Z,160.27
2023-02-12T08:07:48.555Z,195.23
2023-02-12T08:10:15.922Z,264.10
2023-02-12T08:12:43.012Z,281.38
2023-02-12T08:15:10.425Z,321.15
2023-02-12T08:17:38.190Z,275.35
2023-02-12T08:20:05.721Z,259.75
2023-02-12T08:22:32.758Z,214.95
2023-02-12T08:24:59.885Z,300.60
2023-02-12T08:27:28.189Z,143.80
2023-02-12T08:29:55.301Z,122.78
2023-02-12T08:32:22.561Z,160.52
2023-02-12T08:34:49.656Z,153.18
2023-02-12T08:37:16.651Z,158.20
2023-02-12T08:39:43.775Z,139.20
2023-02-12T08:42:10.898Z,133.73
2023-02-12T08:44:38.082Z,142.70
2023-02-12T08:47:06.955Z,152.95
2023-02-12T08:49:33.978Z,139.57
2023-02-12T08:52:02.688Z,136.60
2023-02-12T08:54:32.808Z,137.27
2023-02-12T08:57:01.874Z,142.60
2023-02-12T08:59:29.680Z,118.50
2023-02-12T09:01:56.825Z,117.40
2023-02-12T09:04:26.909Z,117.95
2023-02-12T09:06:55.061Z,121.70
2023-02-12T09:09:22.505Z,112.50
2023-02-12T09:11:49.807Z,113.75
2023-02-12T09:14:19.056Z,99.85
2023-02-12T09:16:46.490Z,112.25
2023-02-12T09:19:14.677Z,131.23
2023-02-12T09:21:42.279Z,108.53
2023-02-12T09:24:10.048Z,111.22
2023-02-12T09:26:37.223Z,108.90
2023-02-12T09:29:05.269Z,100.65
2023-02-12T09:31:33.525Z,100.95
2023-02-12T09:34:07.416Z,103.85
2023-02-12T09:36:36.242Z,90.63
2023-02-12T09:39:05.773Z,95.93
2023-02-12T09:42:11.287Z,89.90
2023-02-12T09:45:03.076Z,85.38
2023-02-12T09:47:51.504Z,82.03
2023-02-12T09:50:37.576Z,89.00
2023-02-12T09:53:06.125Z,91.05
2023-02-12T09:55:35.268Z,86.10
2023-02-12T09:58:10.274Z,86.55
2023-02-12T10:00:37.320Z,76.50
2023-02-12T10:03:11.849Z,79.13
2023-02-12T10:05:43.587Z,79.00
2023-02-12T10:08:29.513Z,81.25
2023-02-12T10:10:59.696Z,72.22
2023-02-12T10:13:41.594Z,74.30
2023-02-12T10:16:17.508Z,78.85
2023-02-12T10:18:50.577Z,79.07
2023-02-12T10:21:36.206Z,75.07
2023-02-12T10:24:07.372Z,84.13
2023-02-12T10:26:43.167Z,74.10
2023-02-12T10:29:35.367Z,75.47
2023-02-12T10:32:14.026Z,81.72
2023-02-12T10:34:42.836Z,67.50
2023-02-12T10:37:35.876Z,65.13
2023-02-12T10:40:14.167Z,70.70
2023-02-12T10:42:44.342Z,65.15
2023-02-12T10:45:16.960Z,64.20
2023-02-12T10:47:46.230Z,62.03
2023-02-12T10:50:50.261Z,64.72
2023-02-12T10:53:25.409Z,56.83
2023-02-12T10:56:14.474Z,55.72
2023-02-12T10:58:52.634Z,57.13
2023-02-12T11:01:31.100Z,48.50
2023-02-12T11:04:00.388Z,48.35
2023-02-12T11:06:32.336Z,52.20
2023-02-12T11:08:59.800Z,50.35
2023-02-12T11:11:31.336Z,48.08
2023-02-12T11:14:16.485Z,48.65
2023-02-12T11:16:57.353Z,50.97
2023-02-12T11:19:27.828Z,49.53
2023-02-12T11:22:14.706Z,48.38
2023-02-12T11:24:41.751Z,45.60
2023-02-12T11:27:28.850Z,42.83
2023-02-12T11:30:15.679Z,45.50
2023-02-12T11:32:44.429Z,42.35
2023-02-12T11:35:25.039Z,41.05
2023-02-12T11:37:56.092Z,42.33
2023-02-12T11:40:29.426Z,39.65
2023-02-12T11:43:01.083Z,43.47
2023-02-12T11:45:35.716Z,46.10
2023-02-12T11:48:03.248Z,42.88
2023-02-12T11:50:33.267Z,48.05
2023-02-12T11:53:09.695Z,40.83
2023-02-12T11:55:40.608Z,37.92
2023-02-12T11:58:21.396Z,37.08
2023-02-12T12:00:57.172Z,34.70
2023-02-12T12:03:44.464Z,42.08
2023-02-12T12:06:36.325Z,41.63
2023-02-12T12:09:25.308Z,37.42
2023-02-12T12:12:02.689Z,40.25
2023-02-12T12:15:02.888Z,39.00
2023-02-12T12:18:07.290Z,41.30
2023-02-12T12:20:56.281Z,40.08
2023-02-12T12:23:37.383Z,38.20
2023-02-12T12:26:18.824Z,41.83
2023-02-12T12:29:09.094Z,36.67
2023-02-12T12:31:44.225Z,39.38
2023-02-12T12:34:17.240Z,36.17
2023-02-12T12:37:15.230Z,36.60
2023-02-12T12:39:56.268Z,37.90
2023-02-12T12:43:03.987Z,39.05
2023-02-12T12:45:51.671Z,35.67
2023-02-12T12:48:44.710Z,32.97
2023-02-12T12:51:15.461Z,32.70
2023-02-12T12:54:07.651Z,34.15
2023-02-12T12:56:48.282Z,33.20
2023-02-12T12:59:34.695Z,31.88
2023-02-12T13:02:26.512Z,37.17
2023-02-12T13:05:02.155Z,33.42
2023-02-12T13:07:53.250Z,32.67
2023-02-12T13:10:24.827Z,32.35
2023-02-12T13:13:03.465Z,32.00
2023-02-12T13:15:52.577Z,31.17
2023-02-12T13:18:34.719Z,32.75
2023-02-12T13:21:23.644Z,29.08
2023-02-12T13:24:03.272Z,27.17
2023-02-12T13:26:33.109Z,32.13
2023-02-12T13:29:08.716Z,31.33
2023-02-12T13:31:54.623Z,30.92
2023-02-12T13:34:23.291Z,33.80
2023-02-12T13:36:50.861Z,31.33
2023-02-12T13:39:31.708Z,27.70
2023-02-12T13:42:17.979Z,25.83
2023-02-12T13:45:18.571Z,26.38
2023-02-12T13:48:04.076Z,25.90
2023-02-12T13:50:31.118Z,23.73
2023-02-12T13:53:12.695Z,28.90
2023-02-12T13:55:54.789Z,25.48
2023-02-12T13:58:40.345Z,28.50
2023-02-12T14:01:11.873Z,32.30
2023-02-12T14:03:39.697Z,30.27
2023-02-12T14:06:17.972Z,30.83
2023-02-12T14:08:57.087Z,29.20
2023-02-12T14:11:26.599Z,31.38
2023-02-12T14:14:06.014Z,29.25
2023-02-12T14:16:33.033Z,30.23
2023-02-12T14:19:37.422Z,30.55
2023-02-12T14:22:30.547Z,30.17
2023-02-12T14:24:59.031Z,28.10
2023-02-12T14:27:53.132Z,26.13
2023-02-12T14:30:46.962Z,29.80
2023-02-12T14:33:26.525Z,31.13
2023-02-12T14:36:13.963Z,28.67
2023-02-12T14:38:47.553Z,27.17
2023-02-12T14:41:41.794Z,28.00
2023-02-12T14:44:18.308Z,26.00
2023-02-12T14:46:53.631Z,29.67
2023-02-12T14:49:39.811Z,30.90
2023-02-12T14:52:14.486Z,30.73
2023-02-12T14:54:55.727Z,33.70
2023-02-12T14:57:30.838Z,24.83
2023-02-12T15:00:18.138Z,31.38
2023-02-12T15:02:55.599Z,27.90
2023-02-12T15:05:47.761Z,27.55
2023-02-12T15:08:29.396Z,24.80
2023-02-12T15:11:22.160Z,23.65
2023-02-12T15:14:09.161Z,21.85
2023-02-12T15:16:52.685Z,25.98
2023-02-12T15:19:39.249Z,24.40
2023-02-12T15:22:30.083Z,23.08
2023-02-12T15:25:32.165Z,23.55
2023-02-12T15:28:18.920Z,21.17
2023-02-12T15:30:46.646Z,23.58
2023-02-12T15:33:27.152Z,18.88
2023-02-12T15:35:54.806Z,18.13
2023-02-12T15:38:32.065Z,19.73
2023-02-12T15:41:01.773Z,20.67
2023-02-12T15:43:36.221Z,16.77
2023-02-12T15:46:07.892Z,16.85
2023-02-12T15:48:37.195Z,16.75
2023-02-12T15:51:28.572Z,13.68
2023-02-12T15:53:58.322Z,17.17
2023-02-12T15:56:27.383Z,20.38
2023-02-12T15:58:57.835Z,13.68
2023-02-12T16:01:31.387Z,14.68
2023-02-12T16:04:01.594Z,13.07
2023-02-12T16:06:32.793Z,13.40
2023-02-12T16:09:06.860Z,14.30
2023-02-12T16:11:35.219Z,12.98
2023-02-12T16:14:07.751Z,14.95
2023-02-12T16:16:50.859Z,15.63
2023-02-12T16:19:37.363Z,15.45
2023-02-12T16:22:16.847Z,16.10
2023-02-12T16:24:51.248Z,16.70
2023-02-12T16:27:25.280Z,14.90
2023-02-12T16:29:55.543Z,13.55
2023-02-12T16:32:43.600Z,15.38
2023-02-12T16:35:10.667Z,15.60
2023-02-12T16:38:08.252Z,17.92
2023-02-12T16:40:37.646Z,13.68
2023-02-12T16:43:23.115Z,15.98
2023-02-12T16:45:50.524Z,14.82
2023-02-12T16:48:25.430Z,15.90
2023-02-12T16:50:56.126Z,14.73
2023-02-12T16:53:32.101Z,13.98
2023-02-12T16:56:00.581Z,14.98
2023-02-12T16:58:28.646Z,15.00
2023-02-12T17:00:57.544Z,13.60
2023-02-12T17:03:25.549Z,11.43
2023-02-12T17:05:52.880Z,14.95
2023-02-12T17:08:23.048Z,13.43
2023-02-12T17:10:50.616Z,10.88
2023-02-12T17:13:19.139Z,11.35
2023-02-12T17:15:48.226Z,13.68
2023-02-12T17:18:16.304Z,13.55
2023-02-12T17:20:47.897Z,11.27
2023-02-12T17:23:15.007Z,11.43
2023-02-12T17:25:42.422Z,11.40
2023-02-12T17:28:09.568Z,11.75
2023-02-12T17:30:37.537Z,14.02
2023-02-12T17:33:04.739Z,12.45
2023-02-12T17:35:31.848Z,13.95
2023-02-12T17:38:01.298Z,11.80
2023-02-12T17:40:28.422Z,14.48
2023-02-12T17:42:55.602Z,12.40
2023-02-12T17:45:22.632Z,14.82
2023-02-12T17:47:55.030Z,11.82
2023-02-12T17:50:22.073Z,13.10
2023-02-12T17:52:49.377Z,15.88
2023-02-12T17:55:17.917Z,11.50
2023-02-12T17:57:45.037Z,12.45
2023-02-12T18:00:13.219Z,12.90
2023-02-12T18:02:41.404Z,13.95
2023-02-12T18:05:08.927Z,11.10
2023-02-12T18:07:36.511Z,11.35
2023-02-12T18:10:05.447Z,12.38
2023-02-12T18:12:33.455Z,10.25
2023-02-12T18:15:02.508Z,14.82
2023-02-12T18:17:30.487Z,11.95
2023-02-12T18:19:57.815Z,11.52
2023-02-12T18:22:25.631Z,11.27
2023-02-12T18:24:53.126Z,10.13
2023-02-12T18:27:20.385Z,10.50
2023-02-12T18:29:47.582Z,12.25
2023-02-12T18:32:16.310Z,12.20
2023-02-12T18:34:44.623Z,10.10
2023-02-12T18:37:13.716Z,14.05
2023-02-12T18:39:41.823Z,10.00
2023-02-12T18:42:09.480Z,14.57
2023-02-12T18:44:37.111Z,11.80
2023-02-12T18:47:05.429Z,12.90
2023-02-12T18:49:32.489Z,15.38
2023-02-12T18:51:59.668Z,12.50
2023-02-12T18:54:35.480Z,15.70
2023-02-12T18:57:02.482Z,15.38
2023-02-12T18:59:29.693Z,15.43
2023-02-12T19:01:56.810Z,12.35
2023-02-12T19:04:26.709Z,15.50
2023-02-12T19:06:57.355Z,15.18
2023-02-12T19:09:26.312Z,15.85
2023-02-12T19:11:58.059Z,16.33
2023-02-12T19:14:28.005Z,14.45
2023-02-12T19:16:55.129Z,15.65
2023-02-12T19:19:22.660Z,18.85
2023-02-12T19:21:50.033Z,15.63
2023-02-12T19:24:20.451Z,18.95
2023-02-12T19:26:54.051Z,18.65
2023-02-12T19:29:21.224Z,14.15
2023-02-12T19:31:48.547Z,16.58
2023-02-12T19:34:19.816Z,16.40
2023-02-12T19:36:49.744Z,14.20
2023-02-12T19:39:19.776Z,14.95
2023-02-12T19:41:47.342Z,14.30
2023-02-12T19:44:23.251Z,16.08
2023-02-12T19:46:51.589Z,16.42
2023-02-12T19:49:23.065Z,14.18
2023-02-12T19:51:50.374Z,14.20
2023-02-12T19:54:22.374Z,18.13
2023-02-12T19:56:50.968Z,15.10
2023-02-12T19:59:20.578Z,14.18
2023-02-12T20:01:49.084Z,15.93
2023-02-12T20:04:21.745Z,13.50
2023-02-12T20:06:51.248Z,15.00
2023-02-12T20:09:19.200Z,15.23
2023-02-12T20:11:46.430Z,13.40
2023-02-12T20:14:14.835Z,13.95
2023-02-12T20:16:44.704Z,12.63
2023-02-12T20:19:18.321Z,13.68
2023-02-12T20:21:48.911Z,17.13
2023-02-12T20:24:16.045Z,14.13
2023-02-12T20:26:43.267Z,12.30
2023-02-12T20:29:10.306Z,12.27
2023-02-12T20:31:38.337Z,12.07
2023-02-12T20:34:08.956Z,11.07
2023-02-12T20:36:38.857Z,13.60
2023-02-12T20:39:08.213Z,14.35
2023-02-12T20:41:37.283Z,12.45
2023-02-12T20:44:06.861Z,13.98
2023-02-12T20:46:37.938Z,10.82
2023-02-12T20:49:07.879Z,12.65
2023-02-12T20:51:35.391Z,14.18
2023-02-12T20:54:03.491Z,12.25
2023-02-12T20:56:32.787Z,13.93
2023-02-12T20:59:01.089Z,12.98
2023-02-12T21:01:34.875Z,14.75
2023-02-12T21:04:10.747Z,14.07
2023-02-12T21:06:41.801Z,13.25
2023-02-12T21:09:10.113Z,13.30
2023-02-12T21:11:38.327Z,13.02
2023-02-12T21:14:21.321Z,12.00
2023-02-12T21:16:50.180Z,13.40
2023-02-12T21:19:18.175Z,12.90
2023-02-12T21:21:46.564Z,10.63
2023-02-12T21:24:16.360Z,15.70
2023-02-12T21:26:43.893Z,13.65
2023-02-12T21:29:10.996Z,13.88
2023-02-12T21:31:42.518Z,13.90
2023-02-12T21:34:14.600Z,14.82
2023-02-12T21:36:45.283Z,13.70
2023-02-12T21:39:16.083Z,17.30
2023-02-12T21:41:43.921Z,15.30
2023-02-12T21:44:15.163Z,15.65
2023-02-12T21:46:42.869Z,16.08
2023-02-12T21:49:15.004Z,17.77
2023-02-12T21:51:44.748Z,16.40
2023-02-12T21:54:15.607Z,15.98
2023-02-12T21:56:44.468Z,17.40
2023-02-12T21:59:13.652Z,18.95
2023-02-12T22:01:49.319Z,16.92
2023-02-12T22:04:17.327Z,17.38
2023-02-12T22:06:49.473Z,19.42
2023-02-12T22:09:20.747Z,16.27
2023-02-12T22:11:47.904Z,20.80
2023-02-12T22:14:17.189Z,17.55
2023-02-12T22:16:44.621Z,17.42
2023-02-12T22:19:11.778Z,16.95
2023-02-12T22:21:40.855Z,18.17
2023-02-12T22:24:12.020Z,18.50
2023-02-12T22:26:39.097Z,17.55
2023-02-12T22:29:11.414Z,17.35
2023-02-12T22:31:41.150Z,17.80
2023-02-12T22:34:11.707Z,19.70
2023-02-12T22:36:40.254Z,17.00
2023-02-12T22:39:07.742Z,19.35
2023-02-12T22:41:35.102Z,16.67
2023-02-12T22:44:05.423Z,18.60
2023-02-12T22:46:33.386Z,15.20
2023-02-12T22:49:00.971Z,15.95
2023-02-12T22:51:31.383Z,17.92
2023-02-12T22:53:59.118Z,19.15
2023-02-12T22:56:26.688Z,18.20
2023-02-12T22:58:58.476Z,15.25
2023-02-12T23:01:26.647Z,18.17
2023-02-12T23:03:54.451Z,19.30
2023-02-12T23:06:24.239Z,15.10
2023-02-12T23:08:53.246Z,17.33
2023-02-12T23:11:20.802Z,18.27
2023-02-12T23:13:48.157Z,17.50
2023-02-12T23:16:15.312Z,18.15
2023-02-12T23:18:42.569Z,16.35
2023-02-12T23:21:09.942Z,17.13
2023-02-12T23:23:37.204Z,15.35
2023-02-12T23:26:04.605Z,17.20
2023-02-12T23:28:31.880Z,20.27
2023-02-12T23:30:59.511Z,18.30
2023-02-12T23:33:27.523Z,18.10
2023-02-12T23:35:54.512Z,18.42
2023-02-12T23:38:21.534Z,19.92
2023-02-12T23:40:48.692Z,18.67
2023-02-12T23:43:16.148Z,15.93
2023-02-12T23:45:44.835Z,21.70
2023-02-12T23:48:12.144Z,18.48
2023-02-12T23:50:39.986Z,19.85
2023-02-12T23:53:07.311Z,19.58
2023-02-12T23:55:37.582Z,18.85
2023-02-12T23:58:05.867Z,22.77
